createdAt,value
2018-07-07T00:01:13.215Z,99.90
2018-07-07T00:03:42.037Z,99.90
2018-07-07T00:06:14.424Z,99.90
2018-07-07T00:08:44.096Z,99.90
2018-07-07T00:11:16.195Z,99.90
2018-07-07T00:13:45.358Z,99.90
2018-07-07T00:16:18.743Z,99.90
2018-07-07T00:18:47.713Z,99.90
2018-07-07T00:21:20.500Z,99.90
2018-07-07T00:23:49.977Z,99.90
2018-07-07T00:26:25.845Z,99.90
2018-07-07T00:28:55.174Z,99.90
2018-07-07T00:31:24.531Z,99.90
2018-07-07T00:33:53.384Z,99.90
2018-07-07T00:36:30.965Z,99.90
2018-07-07T00:39:00.569Z,99.90
2018-07-07T00:41:29.722Z,99.90
2018-07-07T00:43:58.476Z,99.90
2018-07-07T00:46:31.966Z,99.90
2018-07-07T00:49:01.319Z,99.90
2018-07-07T00:51:37.426Z,99.90
2018-07-07T00:54:07.162Z,99.90
2018-07-07T00:56:37.314Z,99.90
2018-07-07T00:59:06.188Z,99.90
2018-07-07T01:01:42.461Z,99.90
2018-07-07T01:04:11.371Z,99.90
2018-07-07T01:06:44.600Z,99.90
2018-07-07T01:09:14.718Z,99.90
2018-07-07T01:11:45.950Z,99.90
2018-07-07T01:14:14.767Z,99.90
2018-07-07T01:16:47.782Z,99.90
2018-07-07T01:19:16.694Z,99.90
2018-07-07T01:21:53.157Z,99.90
2018-07-07T01:24:22.210Z,99.90
2018-07-07T01:26:55.342Z,99.90
2018-07-07T01:29:24.570Z,99.90
2018-07-07T01:31:55.637Z,99.90
2018-07-07T01:34:24.399Z,99.90
2018-07-07T01:36:59.659Z,99.90
2018-07-07T01:39:28.674Z,99.90
2018-07-07T01:42:01.664Z,99.90
2018-07-07T01:44:30.374Z,99.90
2018-07-07T01:47:07.207Z,99.90
2018-07-07T01:49:36.166Z,99.90
2018-07-07T01:52:08.470Z,99.90
2018-07-07T01:54:37.454Z,99.90
2018-07-07T01:57:10.176Z,99.90
2018-07-07T01:59:38.915Z,99.90
2018-07-07T02:02:12.668Z,99.90
2018-07-07T02:04:41.621Z,99.90
2018-07-07T02:07:18.188Z,99.90
2018-07-07T02:09:47.009Z,99.90
2018-07-07T02:12:17.731Z,99.90
2018-07-07T02:14:46.850Z,99.90
2018-07-07T02:17:20.088Z,99.90
2018-07-07T02:19:48.862Z,99.90
2018-07-07T02:22:25.367Z,99.90
2018-07-07T02:24:54.273Z,99.90
2018-07-07T02:27:25.003Z,99.90
2018-07-07T02:32:30.254Z,99.90
2018-07-07T02:34:59.294Z,99.90
2018-07-07T02:37:32.458Z,99.90
2018-07-07T02:40:01.141Z,99.90
2018-07-07T02:42:32.671Z,99.90
2018-07-07T02:45:01.383Z,99.90
2018-07-07T02:47:37.799Z,99.90
2018-07-07T02:50:07.554Z,99.90
2018-07-07T02:52:37.538Z,99.90
2018-07-07T02:55:06.303Z,99.90
2018-07-07T02:57:39.515Z,99.90
2018-07-07T03:00:08.708Z,99.90
2018-07-07T03:02:46.108Z,99.90
2018-07-07T03:05:15.121Z,99.90
2018-07-07T03:07:47.101Z,99.90
2018-07-07T03:10:15.853Z,99.90
2018-07-07T03:12:48.458Z,99.90
2018-07-07T03:15:20.179Z,99.90
2018-07-07T03:17:52.257Z,99.90
2018-07-07T03:20:21.213Z,99.90
2018-07-07T03:22:53.818Z,99.90
2018-07-07T03:25:22.537Z,99.90
2018-07-07T03:27:56.512Z,99.90
2018-07-07T03:30:25.261Z,99.90
2018-07-07T03:33:01.475Z,99.90
2018-07-07T03:35:30.202Z,99.90
2018-07-07T03:38:02.051Z,99.90
2018-07-07T03:40:30.804Z,99.90
2018-07-07T03:45:35.924Z,99.90
2018-07-07T03:48:08.459Z,99.90
2018-07-07T03:50:37.706Z,99.90
2018-07-07T03:53:14.132Z,99.90
2018-07-07T03:55:42.838Z,99.90
2018-07-07T03:58:14.297Z,99.90
2018-07-07T04:00:43.519Z,99.90
2018-07-07T04:03:19.659Z,99.90
2018-07-07T04:05:48.496Z,99.90
2018-07-07T04:08:19.059Z,99.90
2018-07-07T04:10:47.897Z,99.90
2018-07-07T04:15:48.927Z,99.90
2018-07-07T04:18:31.937Z,99.90
2018-07-07T04:21:02.170Z,99.90
2018-07-07T04:23:31.962Z,99.90
2018-07-07T04:26:01.157Z,99.90
2018-07-07T04:28:30.771Z,99.90
2018-07-07T04:31:00.036Z,99.90
2018-07-07T04:33:32.889Z,99.90
2018-07-07T04:36:02.146Z,99.90
2018-07-07T04:38:34.357Z,99.90
2018-07-07T04:41:03.708Z,99.90
2018-07-07T04:43:39.980Z,99.90
2018-07-07T04:46:09.051Z,99.90
2018-07-07T04:48:37.785Z,99.90
2018-07-07T04:51:07.106Z,99.90
2018-07-07T04:53:42.483Z,99.90
2018-07-07T04:56:11.296Z,99.90
2018-07-07T04:58:43.775Z,99.90
2018-07-07T05:01:12.953Z,99.90
2018-07-07T05:03:49.423Z,99.90
2018-07-07T05:06:18.401Z,99.90
2018-07-07T05:08:50.697Z,99.90
2018-07-07T05:11:19.500Z,99.90
2018-07-07T05:13:53.081Z,99.90
2018-07-07T05:16:23.194Z,99.90
2018-07-07T05:18:55.812Z,99.90
2018-07-07T05:21:25.271Z,99.90
2018-07-07T05:23:57.627Z,99.90
2018-07-07T05:26:26.754Z,99.90
2018-07-07T05:28:59.971Z,99.90
2018-07-07T05:31:28.741Z,99.90
2018-07-07T05:34:02.872Z,99.90
2018-07-07T05:36:32.111Z,99.90
2018-07-07T05:39:06.347Z,99.90
2018-07-07T05:41:35.104Z,99.90
2018-07-07T05:44:09.727Z,99.90
2018-07-07T05:46:38.493Z,99.90
2018-07-07T05:49:13.198Z,99.90
2018-07-07T05:51:42.008Z,99.90
2018-07-07T05:54:18.155Z,99.90
2018-07-07T05:56:47.700Z,99.90
2018-07-07T05:59:17.790Z,99.90
2018-07-07T06:01:47.529Z,99.90
2018-07-07T06:04:20.146Z,99.90
2018-07-07T06:06:48.959Z,99.90
2018-07-07T06:09:25.990Z,99.90
2018-07-07T06:11:54.807Z,99.90
2018-07-07T06:14:24.952Z,99.90
2018-07-07T06:16:53.898Z,99.90
2018-07-07T06:19:29.117Z,99.90
2018-07-07T06:21:57.988Z,99.90
2018-07-07T06:24:29.999Z,99.90
2018-07-07T06:27:00.093Z,99.90
2018-07-07T06:29:34.261Z,99.90
2018-07-07T06:32:03.104Z,99.90
2018-07-07T06:34:36.359Z,99.90
2018-07-07T06:37:05.053Z,99.90
2018-07-07T06:39:38.182Z,99.90
2018-07-07T06:42:07.688Z,99.90
2018-07-07T06:44:37.665Z,98.80
2018-07-07T06:47:06.845Z,98.60
2018-07-07T06:49:45.895Z,99.40
2018-07-07T06:52:15.276Z,99.20
2018-07-07T06:54:46.674Z,99.10
2018-07-07T06:57:16.182Z,99.60
2018-07-07T06:59:47.277Z,98.40
2018-07-07T07:02:16.138Z,99.80
2018-07-07T07:04:53.309Z,99.20
2018-07-07T07:12:20.589Z,98.60
2018-07-07T07:14:54.964Z,98.90
2018-07-07T07:17:24.024Z,98.70
2018-07-07T07:19:58.108Z,98.50
2018-07-07T07:22:27.389Z,98.70
2018-07-07T07:25:03.411Z,98.70
2018-07-07T07:27:32.708Z,98.00
2018-07-07T07:30:05.507Z,97.90
2018-07-07T07:32:34.574Z,97.70
2018-07-07T07:35:07.356Z,97.40
2018-07-07T07:37:36.422Z,98.00
2018-07-07T07:40:11.073Z,97.40
2018-07-07T07:42:40.179Z,97.00
2018-07-07T07:45:16.280Z,96.40
2018-07-07T07:47:45.054Z,96.10
2018-07-07T07:50:17.602Z,96.00
2018-07-07T07:52:47.736Z,96.30
2018-07-07T07:55:18.442Z,97.20
2018-07-07T07:57:47.516Z,95.90
2018-07-07T08:00:19.956Z,96.00
2018-07-07T08:02:48.740Z,94.60
2018-07-07T08:05:23.849Z,94.80
2018-07-07T08:07:52.767Z,94.60
2018-07-07T08:10:25.095Z,95.20
2018-07-07T08:12:54.129Z,95.00
2018-07-07T08:15:30.815Z,95.30
2018-07-07T08:18:03.705Z,95.20
2018-07-07T08:20:32.792Z,95.00
2018-07-07T08:23:01.746Z,94.90
2018-07-07T08:25:32.296Z,95.50
2018-07-07T08:28:01.430Z,94.70
2018-07-07T08:30:37.746Z,94.30
2018-07-07T08:35:36.761Z,94.00
2018-07-07T08:38:06.358Z,93.80
2018-07-07T08:40:43.346Z,94.10
2018-07-07T08:43:15.290Z,93.70
2018-07-07T08:45:45.574Z,93.60
2018-07-07T08:48:16.999Z,93.30
2018-07-07T08:50:48.357Z,93.30
2018-07-07T08:53:17.260Z,93.10
2018-07-07T08:55:49.577Z,93.00
2018-07-07T08:58:18.897Z,92.50
2018-07-07T09:00:52.721Z,92.40
2018-07-07T09:03:21.558Z,92.40
2018-07-07T09:05:52.777Z,92.20
2018-07-07T09:08:21.614Z,91.70
2018-07-07T09:10:57.443Z,92.80
2018-07-07T09:13:27.442Z,91.20
2018-07-07T09:15:58.295Z,92.40
2018-07-07T09:18:27.085Z,91.30
2018-07-07T09:21:01.286Z,90.80
2018-07-07T09:23:30.547Z,89.30
2018-07-07T09:32:58.485Z,88.40
2018-07-07T09:35:28.241Z,88.60
2018-07-07T09:37:57.532Z,85.60
2018-07-07T09:40:27.775Z,85.70
2018-07-07T09:42:57.166Z,90.10
2018-07-07T09:45:26.235Z,86.80
2018-07-07T09:47:56.558Z,83.30
2018-07-07T09:50:26.162Z,85.80
2018-07-07T09:52:55.260Z,81.10
2018-07-07T09:55:24.286Z,78.20
2018-07-07T09:57:54.271Z,78.60
2018-07-07T10:00:28.214Z,77.90
2018-07-07T10:02:57.292Z,75.90
2018-07-07T10:05:26.771Z,76.90
2018-07-07T10:07:55.692Z,83.90
2018-07-07T10:10:26.241Z,77.70
2018-07-07T10:12:57.747Z,74.80
2018-07-07T10:15:30.190Z,71.00
2018-07-07T10:17:59.473Z,72.70
2018-07-07T10:20:32.223Z,67.60
2018-07-07T10:23:02.431Z,66.90
2018-07-07T10:25:35.217Z,66.50
2018-07-07T10:28:04.663Z,76.70
2018-07-07T10:30:37.785Z,65.20
2018-07-07T10:33:07.190Z,65.90
2018-07-07T10:35:39.186Z,66.70
2018-07-07T10:38:08.231Z,68.40
2018-07-07T10:40:41.464Z,59.90
2018-07-07T10:43:12.348Z,61.40
2018-07-07T10:45:46.667Z,59.90
2018-07-07T10:48:18.702Z,57.30
2018-07-07T10:50:49.091Z,60.80
2018-07-07T10:53:19.007Z,59.70
2018-07-07T10:55:49.611Z,61.80
2018-07-07T10:58:20.242Z,64.60
2018-07-07T11:00:52.945Z,62.30
2018-07-07T11:03:21.788Z,55.60
2018-07-07T11:05:58.010Z,56.20
2018-07-07T11:08:27.187Z,57.50
2018-07-07T11:10:59.381Z,58.80
2018-07-07T11:13:29.782Z,55.20
2018-07-07T11:16:03.525Z,56.30
2018-07-07T11:18:33.253Z,51.50
2018-07-07T11:21:04.170Z,52.70
2018-07-07T11:23:33.553Z,51.90
2018-07-07T11:26:10.201Z,54.00
2018-07-07T11:28:39.341Z,54.90
2018-07-07T11:31:12.563Z,50.60
2018-07-07T11:33:42.353Z,51.70
2018-07-07T11:38:42.738Z,51.80
2018-07-07T11:41:21.627Z,50.30
2018-07-07T11:43:55.102Z,51.80
2018-07-07T11:46:26.023Z,47.80
2018-07-07T11:48:55.851Z,48.10
2018-07-07T11:51:24.697Z,53.60
2018-07-07T11:53:56.804Z,47.80
2018-07-07T11:56:27.780Z,49.30
2018-07-07T11:58:57.603Z,48.30
2018-07-07T12:01:27.554Z,50.90
2018-07-07T12:03:56.773Z,49.60
2018-07-07T12:06:27.295Z,46.20
2018-07-07T12:08:56.495Z,48.20
2018-07-07T12:11:33.287Z,48.60
2018-07-07T12:14:02.159Z,49.30
2018-07-07T12:16:32.536Z,46.70
2018-07-07T12:19:01.963Z,46.70
2018-07-07T12:21:35.528Z,48.10
2018-07-07T12:24:05.658Z,46.80
2018-07-07T12:26:36.681Z,49.20
2018-07-07T12:29:05.739Z,50.10
2018-07-07T12:31:42.649Z,48.10
2018-07-07T12:34:11.662Z,46.90
2018-07-07T12:36:43.806Z,47.00
2018-07-07T12:39:15.267Z,47.40
2018-07-07T12:41:45.111Z,47.70
2018-07-07T12:44:14.223Z,49.30
2018-07-07T12:46:50.863Z,52.80
2018-07-07T12:49:20.382Z,47.80
2018-07-07T12:51:50.063Z,46.30
2018-07-07T12:54:20.394Z,49.70
2018-07-07T12:56:53.162Z,46.90
2018-07-07T12:59:23.827Z,48.00
2018-07-07T13:01:56.825Z,46.50
2018-07-07T13:04:25.837Z,46.80
2018-07-07T13:07:09.098Z,49.10
2018-07-07T13:09:39.610Z,47.20
2018-07-07T13:12:08.710Z,49.50
2018-07-07T13:14:39.555Z,46.50
2018-07-07T13:17:09.128Z,52.00
2018-07-07T13:19:38.273Z,47.40
2018-07-07T13:22:08.707Z,51.00
2018-07-07T13:24:38.576Z,48.70
2018-07-07T13:27:11.704Z,49.60
2018-07-07T13:29:45.574Z,47.60
2018-07-07T13:32:16.592Z,47.60
2018-07-07T13:34:45.701Z,46.00
2018-07-07T13:37:17.605Z,46.70
2018-07-07T13:39:47.103Z,47.30
2018-07-07T13:42:19.874Z,49.50
2018-07-07T13:44:49.575Z,48.50
2018-07-07T13:47:21.986Z,46.60
2018-07-07T13:49:51.114Z,47.00
2018-07-07T13:52:23.647Z,47.80
2018-07-07T13:54:54.735Z,46.80
2018-07-07T13:57:26.020Z,47.70
2018-07-07T13:59:55.338Z,49.30
2018-07-07T14:02:28.181Z,47.60
2018-07-07T14:04:57.968Z,47.50
2018-07-07T14:07:35.139Z,48.00
2018-07-07T14:10:05.149Z,50.90
2018-07-07T14:12:35.182Z,47.70
2018-07-07T14:15:04.745Z,47.10
2018-07-07T14:17:36.534Z,48.80
2018-07-07T14:20:06.534Z,49.00
2018-07-07T14:22:40.508Z,48.50
2018-07-07T14:25:10.486Z,49.10
2018-07-07T14:27:40.575Z,48.10
2018-07-07T14:30:11.731Z,50.30
2018-07-07T14:32:43.800Z,49.50
2018-07-07T14:35:12.992Z,51.60
2018-07-07T14:37:47.135Z,49.90
2018-07-07T14:40:16.649Z,50.30
2018-07-07T14:42:52.142Z,49.00
2018-07-07T14:45:29.284Z,50.60
2018-07-07T14:47:59.594Z,49.30
2018-07-07T14:50:29.860Z,49.30
2018-07-07T14:52:59.108Z,49.00
2018-07-07T14:55:29.281Z,51.10
2018-07-07T14:57:59.173Z,50.10
2018-07-07T15:00:29.088Z,51.90
2018-07-07T15:02:59.118Z,50.60
2018-07-07T15:05:28.466Z,49.50
2018-07-07T15:08:04.711Z,50.60
2018-07-07T15:10:33.553Z,50.70
2018-07-07T15:13:06.028Z,51.20
2018-07-07T15:18:12.829Z,53.20
2018-07-07T15:20:41.997Z,52.10
2018-07-07T15:23:12.371Z,53.00
2018-07-07T15:25:41.330Z,52.70
2018-07-07T15:28:14.581Z,53.30
2018-07-07T15:30:43.737Z,53.40
2018-07-07T15:33:16.558Z,53.00
2018-07-07T15:35:45.713Z,52.80
2018-07-07T15:38:22.720Z,52.50
2018-07-07T15:40:51.815Z,52.60
2018-07-07T15:43:20.989Z,52.30
2018-07-07T15:45:50.739Z,51.80
2018-07-07T15:48:23.735Z,54.40
2018-07-07T15:50:53.161Z,53.30
2018-07-07T15:53:32.095Z,53.10
2018-07-07T15:56:01.205Z,53.40
2018-07-07T15:58:30.030Z,52.90
2018-07-07T16:00:59.106Z,53.90
2018-07-07T16:03:33.670Z,55.60
2018-07-07T16:06:03.722Z,54.70
2018-07-07T16:08:34.985Z,54.70
2018-07-07T16:11:04.368Z,55.40
2018-07-07T16:13:35.721Z,55.30
2018-07-07T16:16:05.452Z,55.90
2018-07-07T16:18:37.178Z,55.20
2018-07-07T16:21:06.430Z,55.40
2018-07-07T16:23:39.866Z,54.40
2018-07-07T16:26:08.904Z,55.30
2018-07-07T16:28:45.288Z,56.20
2018-07-07T16:31:14.648Z,58.10
2018-07-07T16:33:44.906Z,56.10
2018-07-07T16:36:14.042Z,56.40
2018-07-07T16:38:49.280Z,56.10
2018-07-07T16:41:18.225Z,57.10
2018-07-07T16:43:51.485Z,57.00
2018-07-07T16:46:20.799Z,58.00
2018-07-07T16:48:53.281Z,57.70
2018-07-07T16:51:23.198Z,58.90
2018-07-07T16:53:54.433Z,57.50
2018-07-07T16:56:23.507Z,57.10
2018-07-07T16:59:00.304Z,57.80
2018-07-07T17:01:30.219Z,58.10
2018-07-07T17:04:00.554Z,57.30
2018-07-07T17:06:31.410Z,58.10
2018-07-07T17:11:37.771Z,58.50
2018-07-07T17:14:06.640Z,58.30
2018-07-07T17:16:36.055Z,58.20
2018-07-07T17:19:14.278Z,58.50
2018-07-07T17:21:47.248Z,58.80
2018-07-07T17:24:17.157Z,59.90
2018-07-07T17:26:46.694Z,60.00
2018-07-07T17:29:17.052Z,59.80
2018-07-07T17:31:46.831Z,62.00
2018-07-07T17:36:47.370Z,60.70
2018-07-07T17:39:20.700Z,60.20
2018-07-07T17:41:50.175Z,60.80
2018-07-07T17:44:21.469Z,61.30
2018-07-07T17:46:52.081Z,60.50
2018-07-07T17:49:25.852Z,62.20
2018-07-07T17:51:54.920Z,61.60
2018-07-07T17:54:28.339Z,62.30
2018-07-07T17:56:58.253Z,65.30
2018-07-07T17:59:33.171Z,65.90
2018-07-07T18:02:02.208Z,64.20
2018-07-07T18:04:32.554Z,63.80
2018-07-07T18:07:01.407Z,63.60
2018-07-07T18:09:33.633Z,65.40
2018-07-07T18:12:03.186Z,68.80
2018-07-07T18:14:39.638Z,68.10
2018-07-07T18:17:09.694Z,68.70
2018-07-07T18:19:39.961Z,68.50
2018-07-07T18:22:09.258Z,68.10
2018-07-07T18:24:45.775Z,68.00
2018-07-07T18:27:16.092Z,70.00
2018-07-07T18:29:45.584Z,69.90
2018-07-07T18:32:15.463Z,67.30
2018-07-07T18:34:51.501Z,68.10
2018-07-07T18:37:22.215Z,67.50
2018-07-07T18:39:52.866Z,68.70
2018-07-07T18:42:21.854Z,68.70
2018-07-07T18:44:54.625Z,68.40
2018-07-07T18:47:23.649Z,69.10
2018-07-07T18:52:28.977Z,68.70
2018-07-07T18:55:00.140Z,69.10
2018-07-07T18:57:29.874Z,69.20
2018-07-07T19:02:30.594Z,71.20
2018-07-07T19:05:07.077Z,71.40
2018-07-07T19:07:36.428Z,70.20
2018-07-07T19:10:09.085Z,71.20
2018-07-07T19:12:38.440Z,71.10
2018-07-07T19:15:21.195Z,71.60
2018-07-07T19:17:52.349Z,72.60
2018-07-07T19:20:26.748Z,73.00
2018-07-07T19:23:02.836Z,73.00
2018-07-07T19:25:38.559Z,72.90
2018-07-07T19:28:15.412Z,72.30
2018-07-07T19:30:44.709Z,73.50
2018-07-07T19:33:25.763Z,76.30
2018-07-07T19:36:00.407Z,75.80
2018-07-07T19:38:29.336Z,75.90
2018-07-07T19:40:58.205Z,77.90
2018-07-07T19:43:28.641Z,79.70
2018-07-07T19:45:57.715Z,77.20
2018-07-07T19:48:27.282Z,76.60
2018-07-07T19:50:58.322Z,78.50
2018-07-07T19:53:32.176Z,77.50
2018-07-07T19:56:02.677Z,79.50
2018-07-07T19:58:52.252Z,79.50
2018-07-07T20:01:21.766Z,80.10
2018-07-07T20:03:51.692Z,81.00
2018-07-07T20:06:22.744Z,82.00
2018-07-07T20:08:52.400Z,82.20
2018-07-07T20:11:22.785Z,83.20
2018-07-07T20:13:53.523Z,84.50
2018-07-07T20:16:42.675Z,84.50
2018-07-07T20:19:20.247Z,85.20
2018-07-07T20:21:59.352Z,86.20
2018-07-07T20:24:33.305Z,86.30
2018-07-07T20:27:10.878Z,87.70
2018-07-07T20:29:48.089Z,86.80
2018-07-07T20:32:22.676Z,87.70
2018-07-07T20:34:53.172Z,89.00
2018-07-07T20:37:23.845Z,88.40
2018-07-07T20:39:53.342Z,89.60
2018-07-07T20:42:22.478Z,89.90
2018-07-07T20:44:56.766Z,90.50
2018-07-07T20:47:26.509Z,90.30
2018-07-07T20:49:59.818Z,90.30
2018-07-07T20:52:32.736Z,90.50
2018-07-07T20:55:01.716Z,90.70
2018-07-07T20:57:31.731Z,90.80
2018-07-07T21:00:11.380Z,91.30
2018-07-07T21:02:40.553Z,90.60
2018-07-07T21:05:11.234Z,90.70
2018-07-07T21:07:43.524Z,90.60
2018-07-07T21:10:13.728Z,91.00
2018-07-07T21:12:43.749Z,91.30
2018-07-07T21:15:15.255Z,91.20
2018-07-07T21:17:44.699Z,91.50
2018-07-07T21:20:15.203Z,91.70
2018-07-07T21:22:48.713Z,91.80
2018-07-07T21:25:21.482Z,90.80
2018-07-07T21:27:51.589Z,91.20
2018-07-07T21:30:21.768Z,91.20
2018-07-07T21:32:53.954Z,91.50
2018-07-07T21:35:27.266Z,91.40
2018-07-07T21:37:58.645Z,91.70
2018-07-07T21:40:29.771Z,91.30
2018-07-07T21:43:01.546Z,91.30
2018-07-07T21:45:32.781Z,91.50
2018-07-07T21:48:02.780Z,91.60
2018-07-07T21:50:33.769Z,91.80
2018-07-07T21:53:09.177Z,92.00
2018-07-07T21:55:38.412Z,91.70
2018-07-07T21:58:13.324Z,92.00
2018-07-07T22:00:59.188Z,91.80
2018-07-07T22:03:42.430Z,92.00
2018-07-07T22:06:15.167Z,92.40
2018-07-07T22:08:45.188Z,92.60
2018-07-07T22:11:14.094Z,92.20
2018-07-07T22:13:44.172Z,92.50
2018-07-07T22:16:14.391Z,92.60
2018-07-07T22:18:45.095Z,93.50
2018-07-07T22:21:25.178Z,93.20
2018-07-07T22:23:54.603Z,93.40
2018-07-07T22:26:23.596Z,93.10
2018-07-07T22:28:53.699Z,93.00
2018-07-07T22:31:22.919Z,93.10
2018-07-07T22:33:57.968Z,93.20
2018-07-07T22:36:32.487Z,92.90
2018-07-07T22:39:02.681Z,93.90
2018-07-07T22:42:34.593Z,93.60
2018-07-07T22:45:06.655Z,93.40
2018-07-07T22:47:38.188Z,93.20
2018-07-07T22:50:10.365Z,93.20
2018-07-07T22:52:39.278Z,92.90
2018-07-07T22:55:08.705Z,92.50
2018-07-07T22:57:37.690Z,92.90
2018-07-07T23:00:08.391Z,92.30
2018-07-07T23:02:37.537Z,92.60
2018-07-07T23:05:14.214Z,92.40
2018-07-07T23:07:43.839Z,92.60
2018-07-07T23:10:14.624Z,92.30
2018-07-07T23:12:44.117Z,92.50
2018-07-07T23:15:16.988Z,92.40
2018-07-07T23:17:46.108Z,92.40
2018-07-07T23:20:18.927Z,92.00
2018-07-07T23:22:53.473Z,92.80
2018-07-07T23:25:24.220Z,92.20
2018-07-07T23:27:54.946Z,92.60
2018-07-07T23:30:24.217Z,92.50
2018-07-07T23:32:53.307Z,92.50
2018-07-07T23:35:25.685Z,92.70
2018-07-07T23:37:54.750Z,92.50
2018-07-07T23:40:31.378Z,92.20
2018-07-07T23:43:01.147Z,92.20
2018-07-07T23:45:30.237Z,92.20
2018-07-07T23:47:59.498Z,92.60
2018-07-07T23:50:36.387Z,92.70
2018-07-07T23:53:06.249Z,92.80
2018-07-07T23:55:36.326Z,92.70
2018-07-07T23:58:05.659Z,92.90
